Estación Meteorológica Peña el Pijo (Robertgarden) [ 01/30/23 14:42:59 CET ]

Fecha Hora Presion(HPa) Temp (°C) Humedad % Rocio (°C) Viento ( m/s) Direccion Lluvia 1Hora(mm) Lluvia 24H(mm) LLuvia Total(mm)
2012-Dec-30 01:01:20 1017.600 5.4 74 1.1         178.19
2012-Dec-30 02:05:32 1017.300 3.1 78 -0.4         178.19
2012-Dec-30 03:01:19 1018.000 2.2 75 -1.8         178.19
2012-Dec-30 04:01:14 1018.300 0.1 79 -3.1         178.19
2012-Dec-30 05:01:19 1018.400 0.4 81 -2.5         178.19
2012-Dec-30 06:01:16 1018.500 1.2 79 -2.1         178.19
2012-Dec-30 07:01:14 1018.800 1.3 78 -2.2         178.19
2012-Dec-30 08:01:17 1019.400 2.1 74 -2.1         178.19
2012-Dec-30 09:01:16 1019.600 1.3 74 -2.9         178.19
2012-Dec-30 10:01:16 1019.800 5.4 68 -0.0         178.19
2012-Dec-30 11:01:13 1020.800 8.6 56 0.3         178.19
2012-Dec-30 12:01:17 1020.600 10.5 48 -0.1         178.19
2012-Dec-30 13:01:16 1019.600 11.1 44 -0.8 1.9 NNE     178.19
2012-Dec-30 14:01:19 1018.700 11.0 43 -1.2         178.19
2012-Dec-30 15:01:13 1018.200 11.0 43 -1.2         178.19
2012-Dec-30 16:01:12 1018.500 10.8 43 -1.4         178.19
2012-Dec-30 17:01:14 1018.400 8.4 47 -2.3         178.19
2012-Dec-30 18:01:13 1018.500 6.8 52 -2.4         178.19
2012-Dec-30 19:01:14 1019.300 3.9 59 -3.4         178.19
2012-Dec-30 20:01:12 1019.800 1.0 66 -4.7         178.19
2012-Dec-30 21:01:12 1019.700 -0.4 71 -5.0         178.19
2012-Dec-30 22:01:14 1019.500 -1.4 76 -5.1         178.19
2012-Dec-30 23:01:17 1019.900 -1.9 78 -5.2         178.19

Temperatura Máxima:11°    Temperatura Mínima:-1°
Presión Máxima:1020.800 Hpa    Presión Mínima:1017.300 Hpa


Volver